Time;durP1;ratioP1;P1;durP2;ratioP2;P2;SDS_P1;SDS_P2;PMS_P1;PMS_P2;Temp;Humidity;BMP_temperature;BMP_pressure;BME280_temperature;BME280_humidity;BME280_pressure;Samples;Min_cycle;Max_cycle;Signal;HPM_P1;HPM_P2
2023/01/07 00:01:20;;;;;;;11.57;8.77;;;;;;;18.98;55.91;101563.78;5094742;28;20048;-69
2023/01/07 00:03:47;;;;;;;11.67;8.87;;;;;;;19.68;54.34;101546.31;5121784;27;20125;-69
2023/01/07 00:06:18;;;;;;;10.33;7.40;;;;;;;19.73;53.88;101554.09;5101878;28;20411;-69
2023/01/07 00:08:47;;;;;;;10.83;7.40;;;;;;;19.43;54.37;101547.22;5095153;28;20031;-69
2023/01/07 00:11:18;;;;;;;10.90;7.00;;;;;;;18.97;55.76;101556.75;5093098;28;20032;-69
2023/01/07 00:13:45;;;;;;;11.63;7.47;;;;;;;19.36;54.99;101551.00;5111738;28;20425;-69
2023/01/07 00:16:13;;;;;;;10.50;7.40;;;;;;;19.15;55.32;101548.19;5111703;28;20039;-70
2023/01/07 00:18:40;;;;;;;12.57;7.30;;;;;;;18.87;56.38;101555.31;5074919;28;20394;-68
2023/01/07 00:21:08;;;;;;;10.10;7.33;;;;;;;18.51;58.00;101540.56;5074371;28;20044;-67
2023/01/07 00:23:35;;;;;;;10.60;6.77;;;;;;;19.67;53.67;101544.56;5092494;28;20517;-67
2023/01/07 00:26:04;;;;;;;8.17;6.67;;;;;;;19.04;54.85;101549.47;5098591;28;20023;-67
2023/01/07 00:28:29;;;;;;;8.33;6.37;;;;;;;19.19;54.60;101548.06;5112043;28;20040;-67
2023/01/07 00:31:02;;;;;;;11.93;6.40;;;;;;;19.10;54.44;101543.97;5112104;28;20042;-67
2023/01/07 00:33:28;;;;;;;7.47;6.37;;;;;;;18.03;58.27;101542.03;5092443;28;20082;-67
2023/01/07 00:36:07;;;;;;;8.80;6.83;;;;;;;18.95;56.28;101540.91;5088682;28;20081;-67
2023/01/07 00:38:32;;;;;;;12.33;7.37;;;;;;;19.62;53.21;101534.16;5112176;28;20500;-67
2023/01/07 00:40:58;;;;;;;10.17;6.90;;;;;;;18.58;57.32;101535.97;5112480;28;20062;-67
2023/01/07 00:43:23;;;;;;;8.07;6.40;;;;;;;19.78;52.56;101536.22;5094341;28;20410;-67
2023/01/07 00:45:48;;;;;;;11.77;6.70;;;;;;;19.59;53.12;101528.09;5124435;27;20133;-67
2023/01/07 00:48:14;;;;;;;9.47;6.60;;;;;;;18.34;55.42;101522.59;5092885;28;20892;-68
2023/01/07 00:50:40;;;;;;;7.87;6.30;;;;;;;18.88;54.35;101522.66;5110254;28;20034;-67
2023/01/07 00:53:05;;;;;;;8.37;6.30;;;;;;;20.02;52.04;101517.66;5092709;28;20033;-67
2023/01/07 00:55:31;;;;;;;12.07;6.33;;;;;;;19.39;53.25;101511.13;5110750;28;20480;-67
2023/01/07 00:57:56;;;;;;;6.63;5.40;;;;;;;19.42;53.60;101513.66;5094453;28;20027;-67
2023/01/07 01:00:24;;;;;;;7.03;5.40;;;;;;;19.26;52.29;101508.06;5093103;28;20499;-67
2023/01/07 01:02:50;;;;;;;8.07;5.60;;;;;;;19.19;53.96;101508.34;5093392;28;20488;-67
2023/01/07 01:05:17;;;;;;;7.07;4.90;;;;;;;19.49;54.07;101512.53;5105262;27;20083;-67
2023/01/07 01:07:43;;;;;;;6.93;5.23;;;;;;;19.29;53.47;101507.09;5112306;28;20028;-67
2023/01/07 01:10:11;;;;;;;5.90;4.90;;;;;;;18.44;55.52;101505.50;5090238;28;20489;-67
2023/01/07 01:12:37;;;;;;;9.47;5.20;;;;;;;18.93;54.55;101507.44;5092939;28;20402;-67
2023/01/07 01:15:06;;;;;;;7.30;5.07;;;;;;;19.47;53.34;101493.16;5112179;28;20038;-67
2023/01/07 01:17:32;;;;;;;8.07;4.83;;;;;;;18.52;54.96;101499.06;5096661;27;20035;-67
2023/01/07 01:19:57;;;;;;;10.00;5.20;;;;;;;18.69;54.37;101494.09;5126850;27;20028;-67
2023/01/07 01:22:23;;;;;;;7.53;4.90;;;;;;;19.66;52.82;101479.22;5127922;27;20043;-67
2023/01/07 01:24:49;;;;;;;4.70;4.20;;;;;;;18.72;53.97;101480.75;5111810;28;20367;-67
2023/01/07 01:27:15;;;;;;;7.43;4.93;;;;;;;18.71;54.40;101479.03;5111755;28;20035;-67
2023/01/07 01:29:40;;;;;;;6.57;4.70;;;;;;;19.77;51.63;101479.69;5092384;28;20069;-67
2023/01/07 01:32:06;;;;;;;7.33;4.70;;;;;;;19.65;51.98;101473.03;5110303;28;20035;-67
2023/01/07 01:34:31;;;;;;;12.50;5.53;;;;;;;19.40;53.49;101474.88;5108078;27;20037;-67
2023/01/07 01:36:57;;;;;;;7.07;4.80;;;;;;;19.08;53.17;101472.50;5110446;27;20436;-67
2023/01/07 01:39:22;;;;;;;10.47;6.13;;;;;;;19.28;52.96;101474.41;5111006;28;20026;-67
2023/01/07 01:41:47;;;;;;;7.80;5.70;;;;;;;19.27;53.37;101474.47;5109374;28;20425;-67
2023/01/07 01:44:33;;;;;;;6.90;5.57;;;;;;;20.27;50.87;101475.13;5092545;28;20046;-67
2023/01/07 01:47:01;;;;;;;10.43;6.43;;;;;;;19.34;53.58;101483.91;5111545;28;20034;-67
2023/01/07 01:49:34;;;;;;;14.57;6.97;;;;;;;19.12;53.58;101484.72;5098033;28;20084;-67
2023/01/07 01:52:05;;;;;;;7.73;5.80;;;;;;;19.01;55.06;101465.66;5109745;28;20107;-67
2023/01/07 01:54:31;;;;;;;9.00;6.33;;;;;;;18.92;53.80;101466.00;5092901;28;20069;-67
2023/01/07 01:57:00;;;;;;;10.40;6.60;;;;;;;17.72;58.24;101470.66;5093156;28;20027;-67
2023/01/07 01:59:32;;;;;;;9.57;6.30;;;;;;;18.58;54.62;101470.63;5110517;28;20042;-67
2023/01/07 02:01:57;;;;;;;10.97;6.77;;;;;;;18.50;54.01;101469.16;5089982;28;20079;-67
2023/01/07 02:04:25;;;;;;;9.50;7.30;;;;;;;18.28;56.17;101464.56;5088060;28;20032;-67
2023/01/07 02:07:04;;;;;;;13.10;7.20;;;;;;;18.10;57.90;101461.59;5088462;28;20055;-67
2023/01/07 02:09:30;;;;;;;11.40;7.23;;;;;;;18.87;53.79;101467.91;5090282;28;20028;-67
2023/01/07 02:12:26;;;;;;;12.53;7.37;;;;;;;19.21;52.89;101464.09;5110795;28;20066;-67
2023/01/07 02:15:16;;;;;;;9.33;7.20;;;;;;;18.33;55.98;101467.06;5088144;28;20036;-67
2023/01/07 02:18:15;;;;;;;9.87;6.90;;;;;;;17.51;58.17;101465.09;5109071;28;20035;-67
2023/01/07 02:21:07;;;;;;;11.70;7.30;;;;;;;18.13;55.84;101455.34;5104343;28;20042;-67
2023/01/07 02:24:18;;;;;;;12.17;7.07;;;;;;;17.66;58.33;101471.72;5080097;28;20135;-67
2023/01/07 02:26:44;;;;;;;10.97;7.13;;;;;;;17.57;58.98;101451.72;5053634;28;20048;-67
2023/01/07 02:29:26;;;;;;;9.07;6.77;;;;;;;18.68;54.67;101455.28;5069122;28;20065;-67
2023/01/07 02:32:10;;;;;;;12.52;6.93;;;;;;;17.87;56.89;101450.84;5086178;28;20435;-67
2023/01/07 02:34:53;;;;;;;12.13;7.13;;;;;;;18.10;55.12;101447.50;5087330;28;20086;-67
2023/01/07 02:37:57;;;;;;;10.90;7.03;;;;;;;17.54;59.22;101450.94;5089451;28;20101;-67
2023/01/07 02:40:41;;;;;;;14.57;6.82;;;;;;;17.54;57.67;101443.00;5090102;28;20028;-67
2023/01/07 02:43:26;;;;;;;17.43;7.80;;;;;;;17.67;57.47;101439.09;5096770;28;20019;-67
2023/01/07 02:46:02;;;;;;;12.37;6.70;;;;;;;17.38;58.79;101435.53;5072535;28;20481;-67
2023/01/07 02:48:29;;;;;;;11.07;7.03;;;;;;;17.64;57.48;101436.53;5088537;28;20028;-67
2023/01/07 02:50:54;;;;;;;10.70;7.53;;;;;;;17.19;58.78;101444.91;5089172;28;20020;-67
2023/01/07 02:53:20;;;;;;;12.30;7.00;;;;;;;17.08;60.58;101437.28;5087674;28;20539;-67
2023/01/07 02:56:17;;;;;;;12.57;6.47;;;;;;;17.49;58.11;101431.69;5087519;28;20059;-67
2023/01/07 02:59:13;;;;;;;10.63;7.27;;;;;;;17.48;58.34;101424.69;5090010;28;20111;-67
2023/01/07 03:02:09;;;;;;;15.27;7.03;;;;;;;18.24;55.05;101426.75;5112072;27;20055;-67
2023/01/07 03:04:55;;;;;;;9.13;6.60;;;;;;;17.59;57.19;101423.44;5113080;28;20059;-70
2023/01/07 03:07:37;;;;;;;15.47;6.60;;;;;;;17.66;56.42;101424.13;5054168;28;20051;-67
2023/01/07 03:10:17;;;;;;;11.57;6.50;;;;;;;17.61;55.83;101419.00;5098290;27;20023;-67
2023/01/07 03:13:16;;;;;;;11.17;6.50;;;;;;;17.55;58.59;101420.97;5135049;27;20497;-67
2023/01/07 03:15:46;;;;;;;16.23;6.50;;;;;;;17.25;58.25;101413.00;5107525;27;20508;-67
2023/01/07 03:18:21;;;;;;;9.37;6.03;;;;;;;17.97;55.68;101412.66;5092912;28;20024;-67
2023/01/07 03:20:52;;;;;;;16.03;6.20;;;;;;;17.29;58.84;101412.88;5096172;28;20555;-67
2023/01/07 03:23:21;;;;;;;9.07;5.70;;;;;;;17.20;58.99;101414.91;5095233;28;20076;-67
2023/01/07 03:25:49;;;;;;;13.33;6.50;;;;;;;17.94;56.10;101407.44;5107856;28;20024;-67
2023/01/07 03:28:20;;;;;;;14.57;6.17;;;;;;;18.19;54.28;101396.06;5091587;28;20428;-67
2023/01/07 03:30:47;;;;;;;7.87;5.40;;;;;;;17.48;56.32;101403.56;5093402;28;20077;-67
2023/01/07 03:33:22;;;;;;;11.00;6.27;;;;;;;18.30;54.76;101400.09;5112411;28;20176;-67
2023/01/07 03:35:51;;;;;;;7.93;5.60;;;;;;;18.03;54.55;101396.56;5114443;28;20467;-67
2023/01/07 03:38:21;;;;;;;14.20;6.60;;;;;;;17.49;56.72;101397.34;5092560;27;20019;-67
2023/01/07 03:40:46;;;;;;;15.07;7.40;;;;;;;17.74;55.07;101398.31;5113352;28;20118;-67
2023/01/07 03:43:13;;;;;;;9.53;6.10;;;;;;;17.75;56.25;101394.78;5125921;27;20106;-67
2023/01/07 03:45:39;;;;;;;11.20;6.80;;;;;;;16.92;60.94;101399.84;5120500;27;20027;-67
2023/01/07 03:48:05;;;;;;;14.33;7.07;;;;;;;18.00;54.54;101388.75;5098802;28;20030;-67
2023/01/07 03:50:30;;;;;;;14.47;7.47;;;;;;;16.88;59.13;101392.88;5094562;28;20035;-67
2023/01/07 03:52:55;;;;;;;15.80;6.70;;;;;;;17.31;58.62;101386.44;5113067;28;20024;-67
2023/01/07 03:55:21;;;;;;;11.07;6.87;;;;;;;17.26;58.06;101388.31;5113506;28;20114;-67
2023/01/07 03:57:46;;;;;;;11.50;7.93;;;;;;;17.78;55.22;101386.75;5094044;28;20394;-67
2023/01/07 04:00:13;;;;;;;14.20;7.57;;;;;;;17.87;55.71;101379.44;5092225;28;20032;-67
2023/01/07 04:02:38;;;;;;;10.67;7.07;;;;;;;17.02;58.22;101385.50;5093671;28;20441;-67
2023/01/07 04:05:04;;;;;;;14.50;6.67;;;;;;;16.93;58.32;101386.59;5094621;28;20031;-67
2023/01/07 04:07:30;;;;;;;19.03;7.37;;;;;;;17.99;55.19;101373.78;5093924;28;20557;-67
2023/01/07 04:09:55;;;;;;;14.20;6.93;;;;;;;17.63;57.04;101376.66;5094134;28;20067;-67
2023/01/07 04:12:20;;;;;;;11.67;6.97;;;;;;;17.61;56.61;101373.19;5093385;28;20020;-67
2023/01/07 04:14:46;;;;;;;12.23;7.33;;;;;;;16.98;58.56;101368.00;5095056;28;20391;-67
2023/01/07 04:17:11;;;;;;;14.13;7.20;;;;;;;17.18;58.27;101370.06;5112398;28;20107;-67
2023/01/07 04:19:38;;;;;;;13.27;6.93;;;;;;;17.44;57.27;101361.34;5107722;28;20110;-68
2023/01/07 04:22:04;;;;;;;14.97;8.13;;;;;;;17.62;56.91;101357.25;5111881;28;20475;-67
2023/01/07 04:24:30;;;;;;;15.67;7.97;;;;;;;17.44;57.96;101350.78;5112761;27;20066;-67
2023/01/07 04:26:56;;;;;;;14.00;7.03;;;;;;;18.25;55.52;101350.91;5110039;28;20463;-67
2023/01/07 04:29:21;;;;;;;12.80;6.73;;;;;;;17.50;56.34;101344.44;5093666;28;20034;-67
2023/01/07 04:31:48;;;;;;;13.40;7.70;;;;;;;18.06;55.40;101354.16;5094606;28;20061;-68
2023/01/07 04:34:13;;;;;;;11.83;8.00;;;;;;;17.93;55.18;101344.91;5092104;28;21344;-67
2023/01/07 04:36:39;;;;;;;16.57;7.97;;;;;;;18.30;54.59;101347.19;5100794;27;20027;-68
2023/01/07 04:39:04;;;;;;;13.63;8.10;;;;;;;17.84;55.53;101343.38;5111491;27;20032;-67
2023/01/07 04:41:29;;;;;;;15.90;7.93;;;;;;;17.69;57.57;101355.31;5110832;28;20031;-67
2023/01/07 04:43:55;;;;;;;15.23;8.03;;;;;;;17.82;55.79;101342.56;5112906;28;20039;-68
2023/01/07 04:46:20;;;;;;;11.80;7.77;;;;;;;18.92;53.12;101345.03;5112582;28;20024;-68
2023/01/07 04:48:45;;;;;;;26.73;9.03;;;;;;;18.85;53.60;101342.63;5109276;28;20110;-68
2023/01/07 04:51:11;;;;;;;11.73;7.43;;;;;;;17.86;56.02;101346.84;5098846;27;20218;-67
2023/01/07 04:53:37;;;;;;;17.90;8.40;;;;;;;17.83;56.40;101341.63;5114747;27;20502;-68
2023/01/07 04:56:05;;;;;;;16.37;8.00;;;;;;;18.31;55.38;101326.84;5114114;27;20023;-67
2023/01/07 04:58:30;;;;;;;15.97;8.53;;;;;;;17.63;58.05;101334.38;5107236;27;20023;-68
2023/01/07 05:00:57;;;;;;;16.80;8.97;;;;;;;18.20;56.54;101326.38;5098793;28;20031;-68
2023/01/07 05:03:23;;;;;;;18.40;8.57;;;;;;;18.35;54.97;101323.19;5110741;28;20106;-68
2023/01/07 05:05:48;;;;;;;14.97;9.07;;;;;;;17.54;58.68;101318.78;5126759;27;20098;-67
2023/01/07 05:08:14;;;;;;;15.90;9.43;;;;;;;17.18;59.38;101322.50;5096534;28;20035;-69
2023/01/07 05:10:39;;;;;;;16.70;9.13;;;;;;;17.38;57.98;101308.69;5112527;28;20087;-69
2023/01/07 05:13:05;;;;;;;14.50;8.77;;;;;;;16.91;59.45;101303.06;5092870;28;20047;-69
2023/01/07 05:15:31;;;;;;;17.87;9.03;;;;;;;17.35;57.21;101303.53;5116556;27;20030;-69
2023/01/07 05:17:56;;;;;;;17.67;9.17;;;;;;;16.74;61.22;101304.38;5127322;27;20039;-70
2023/01/07 05:20:22;;;;;;;17.20;9.00;;;;;;;17.43;58.71;101301.50;5110941;28;20074;-69
2023/01/07 05:22:47;;;;;;;18.10;8.90;;;;;;;17.38;58.99;101310.47;5091555;28;20100;-69
2023/01/07 05:25:13;;;;;;;19.63;9.17;;;;;;;17.99;56.73;101298.88;5093741;28;20041;-69
2023/01/07 05:27:38;;;;;;;16.83;9.33;;;;;;;18.12;56.46;101290.47;5093198;28;20023;-70
2023/01/07 05:30:04;;;;;;;17.40;9.43;;;;;;;17.86;56.18;101301.00;5097072;27;20015;-69
2023/01/07 05:32:30;;;;;;;20.17;9.70;;;;;;;17.68;56.12;101299.84;5096469;27;20034;-69
2023/01/07 05:34:56;;;;;;;19.63;9.37;;;;;;;17.74;56.72;101292.59;5127628;27;20386;-69
2023/01/07 05:37:21;;;;;;;16.57;8.80;;;;;;;17.96;56.20;101284.81;5092709;28;20011;-68
2023/01/07 05:39:47;;;;;;;18.00;9.70;;;;;;;18.35;55.11;101280.84;5092632;28;20474;-68
2023/01/07 05:42:12;;;;;;;17.77;9.30;;;;;;;18.48;54.46;101282.16;5092002;28;20414;-68
2023/01/07 05:44:37;;;;;;;21.33;9.77;;;;;;;18.67;53.43;101278.84;5092395;28;20452;-67
2023/01/07 05:47:03;;;;;;;23.20;9.83;;;;;;;17.89;54.21;101287.72;5095640;27;20427;-68
2023/01/07 05:49:28;;;;;;;18.80;9.43;;;;;;;18.63;52.72;101278.09;5113331;27;20027;-68
2023/01/07 05:51:53;;;;;;;16.80;9.07;;;;;;;17.86;55.09;101277.22;5113226;27;20432;-68
2023/01/07 05:54:19;;;;;;;18.77;9.13;;;;;;;17.95;54.38;101266.38;5091250;28;20115;-68
2023/01/07 05:56:44;;;;;;;15.63;7.93;;;;;;;17.94;53.68;101259.34;5093451;28;20543;-68
2023/01/07 05:59:10;;;;;;;12.73;7.87;;;;;;;17.22;58.44;101265.19;5092534;28;20038;-69
2023/01/07 06:01:35;;;;;;;16.40;7.90;;;;;;;17.20;56.80;101266.97;5115496;27;20108;-68
2023/01/07 06:04:00;;;;;;;15.77;7.27;;;;;;;17.64;55.90;101262.09;5110499;28;20059;-68
2023/01/07 06:06:26;;;;;;;14.47;7.87;;;;;;;17.75;54.89;101244.09;5089891;28;20478;-68
2023/01/07 06:08:51;;;;;;;16.27;7.47;;;;;;;17.71;54.20;101242.47;5092565;28;20096;-68
2023/01/07 06:11:16;;;;;;;15.90;7.37;;;;;;;17.19;56.47;101238.88;5092799;28;20022;-68
2023/01/07 06:13:42;;;;;;;14.03;7.57;;;;;;;17.99;53.91;101236.25;5108676;27;20019;-68
2023/01/07 06:16:09;;;;;;;12.97;6.30;;;;;;;17.58;55.30;101236.69;5110168;28;20051;-68
2023/01/07 06:18:34;;;;;;;12.83;6.73;;;;;;;17.15;55.91;101242.50;5090989;28;20037;-68
2023/01/07 06:21:00;;;;;;;14.07;6.33;;;;;;;17.35;54.74;101234.81;5111126;27;20390;-68
2023/01/07 06:23:26;;;;;;;13.53;6.43;;;;;;;17.41;55.79;101229.34;5091730;28;20398;-68
2023/01/07 06:25:51;;;;;;;16.50;7.50;;;;;;;16.56;57.53;101223.09;5089746;28;20034;-68
2023/01/07 06:28:17;;;;;;;11.20;5.77;;;;;;;17.28;54.77;101225.34;5091405;28;20035;-67
2023/01/07 06:30:47;;;;;;;11.63;6.97;;;;;;;17.00;57.44;101220.09;5092056;28;20417;-68
2023/01/07 06:33:13;;;;;;;11.77;5.07;;;;;;;17.41;55.29;101218.75;5089947;28;20471;-68
2023/01/07 06:35:39;;;;;;;12.50;4.97;;;;;;;17.79;53.83;101208.69;5092935;28;20024;-68
2023/01/07 06:38:04;;;;;;;13.60;5.70;;;;;;;17.08;55.87;101204.88;5112037;28;20039;-68
2023/01/07 06:40:29;;;;;;;7.47;4.90;;;;;;;17.69;53.70;101201.97;5098303;28;20406;-68
2023/01/07 06:42:55;;;;;;;9.47;4.63;;;;;;;17.50;54.03;101206.16;5117558;28;20148;-68
2023/01/07 06:45:20;;;;;;;8.73;4.70;;;;;;;17.15;55.39;101201.09;5088429;28;20059;-68
2023/01/07 06:47:47;;;;;;;8.90;4.30;;;;;;;17.43;54.20;101201.09;5092753;28;20027;-68
2023/01/07 06:50:13;;;;;;;7.80;4.10;;;;;;;16.23;57.79;101207.31;5111481;28;20027;-68
2023/01/07 06:52:39;;;;;;;10.47;4.07;;;;;;;17.10;55.59;101203.91;5129238;28;20052;-68
2023/01/07 06:55:04;;;;;;;6.63;4.10;;;;;;;17.09;56.12;101207.44;5112455;28;20031;-68
2023/01/07 06:57:30;;;;;;;6.90;3.83;;;;;;;17.68;53.68;101205.56;5103842;28;20044;-68
2023/01/07 06:59:55;;;;;;;5.17;3.33;;;;;;;17.17;54.94;101208.97;5090642;28;20061;-68
2023/01/07 07:02:23;;;;;;;7.70;3.27;;;;;;;17.60;54.21;101194.38;5094921;28;20486;-68
2023/01/07 07:04:48;;;;;;;5.70;2.97;;;;;;;17.30;54.30;101200.59;5116995;28;20028;-68
2023/01/07 07:07:14;;;;;;;4.73;2.87;;;;;;;17.48;53.97;101187.72;5110556;28;20088;-68
2023/01/07 07:09:40;;;;;;;7.77;3.03;;;;;;;18.01;52.16;101192.13;5090888;28;20027;-68
2023/01/07 07:12:06;;;;;;;8.43;3.03;;;;;;;17.62;52.55;101195.19;5103927;28;20020;-68
2023/01/07 07:14:32;;;;;;;5.20;2.27;;;;;;;17.76;52.43;101187.66;5110450;28;20042;-68
2023/01/07 07:16:57;;;;;;;3.80;2.17;;;;;;;17.86;52.36;101187.31;5091048;28;20027;-68
2023/01/07 07:19:22;;;;;;;4.03;2.20;;;;;;;17.96;51.70;101186.97;5109291;28;20106;-68
2023/01/07 07:21:48;;;;;;;3.83;2.73;;;;;;;18.08;50.86;101188.34;5090014;28;20118;-68
2023/01/07 07:24:14;;;;;;;6.27;2.47;;;;;;;17.77;51.79;101175.28;5091617;28;20499;-68
2023/01/07 07:26:39;;;;;;;4.83;2.10;;;;;;;17.07;53.22;101188.13;5092096;28;20123;-68
2023/01/07 07:29:04;;;;;;;4.03;2.00;;;;;;;17.81;51.65;101175.13;5091515;28;20126;-68
2023/01/07 07:31:30;;;;;;;3.30;2.30;;;;;;;17.01;53.31;101172.50;5090214;28;20547;-68
2023/01/07 07:33:55;;;;;;;5.00;2.00;;;;;;;17.50;52.46;101172.66;5108105;28;20110;-68
2023/01/07 07:36:21;;;;;;;3.30;1.90;;;;;;;17.90;52.21;101170.44;5109889;28;20024;-68
2023/01/07 07:38:46;;;;;;;3.23;1.90;;;;;;;17.44;51.94;101168.44;5109058;28;20379;-68
2023/01/07 07:41:11;;;;;;;2.40;2.00;;;;;;;18.17;50.73;101165.13;5090100;28;20059;-68
2023/01/07 07:43:37;;;;;;;3.63;2.00;;;;;;;17.24;51.76;101176.16;5090998;28;20085;-68
2023/01/07 07:46:03;;;;;;;7.10;2.47;;;;;;;17.49;52.62;101172.72;5095126;28;20065;-68
2023/01/07 07:48:28;;;;;;;3.23;1.97;;;;;;;17.68;51.01;101163.28;5093857;28;20453;-68
2023/01/07 07:50:54;;;;;;;5.93;2.23;;;;;;;17.60;50.44;101157.38;5094723;28;20050;-68
2023/01/07 07:53:19;;;;;;;4.33;1.60;;;;;;;18.61;48.65;101160.78;5113912;28;20057;-68
2023/01/07 07:55:45;;;;;;;3.53;1.67;;;;;;;18.22;48.98;101152.59;5094404;28;20035;-68
2023/01/07 07:58:11;;;;;;;2.70;1.57;;;;;;;17.97;49.85;101153.47;5094844;28;20494;-68
2023/01/07 08:00:37;;;;;;;2.47;1.70;;;;;;;18.05;49.64;101156.72;5112492;28;20032;-68
2023/01/07 08:03:03;;;;;;;3.07;1.80;;;;;;;18.53;48.79;101146.13;5094011;28;20101;-68
2023/01/07 08:05:29;;;;;;;3.07;1.53;;;;;;;18.05;49.26;101148.78;5094471;28;20027;-68
2023/01/07 08:07:55;;;;;;;3.30;1.70;;;;;;;18.00;49.74;101140.13;5113356;28;20536;-68
2023/01/07 08:10:21;;;;;;;3.97;2.00;;;;;;;17.64;50.18;101140.50;5093019;28;20031;-68
2023/01/07 08:12:49;;;;;;;3.07;1.90;;;;;;;17.84;49.89;101147.72;5093975;28;20043;-68
2023/01/07 08:15:14;;;;;;;3.47;1.90;;;;;;;18.08;49.06;101129.25;5094119;28;20019;-68
2023/01/07 08:17:40;;;;;;;2.27;1.50;;;;;;;17.76;49.25;101140.06;5095275;28;20027;-67
2023/01/07 08:20:07;;;;;;;3.77;1.77;;;;;;;17.56;51.20;101134.63;5092402;28;20035;-67
2023/01/07 08:22:33;;;;;;;2.63;1.67;;;;;;;17.77;50.10;101139.13;5095224;28;20114;-68
2023/01/07 08:24:58;;;;;;;2.40;1.90;;;;;;;17.09;50.80;101133.50;5095772;28;20030;-68
2023/01/07 08:27:26;;;;;;;7.53;1.83;;;;;;;17.03;50.78;101133.69;5094356;28;20016;-68
2023/01/07 08:29:52;;;;;;;2.60;1.57;;;;;;;17.13;51.64;101135.13;5112344;28;20467;-68
2023/01/07 08:32:17;;;;;;;5.07;1.67;;;;;;;18.17;49.55;101134.22;5111519;28;20035;-68
2023/01/07 08:34:43;;;;;;;3.77;1.83;;;;;;;17.61;49.78;101136.19;5111245;28;20479;-68
2023/01/07 08:37:08;;;;;;;2.50;1.57;;;;;;;16.70;50.84;101141.72;5091674;28;20047;-68
2023/01/07 08:39:33;;;;;;;3.03;1.43;;;;;;;17.88;48.90;101135.25;5111539;28;20023;-68
2023/01/07 08:41:58;;;;;;;3.67;1.63;;;;;;;17.84;49.14;101131.84;5094016;28;20085;-68
2023/01/07 08:44:24;;;;;;;1.63;1.40;;;;;;;18.00;48.14;101126.91;5111784;28;20081;-68
2023/01/07 08:46:51;;;;;;;1.63;1.53;;;;;;;18.24;48.04;101129.56;5097690;27;20029;-68
2023/01/07 08:49:16;;;;;;;6.00;2.10;;;;;;;18.60;47.72;101126.44;5130824;27;20034;-68
2023/01/07 08:51:42;;;;;;;3.90;1.60;;;;;;;17.99;48.54;101122.53;5093467;28;20437;-68
2023/01/07 08:54:07;;;;;;;3.80;1.80;;;;;;;17.63;49.43;101120.25;5110199;28;20058;-68
2023/01/07 08:56:32;;;;;;;3.17;1.60;;;;;;;17.01;51.01;101119.69;5093844;28;20024;-68
2023/01/07 08:58:58;;;;;;;4.60;2.43;;;;;;;18.02;48.52;101122.41;5094446;28;20463;-68
2023/01/07 09:01:23;;;;;;;3.57;2.00;;;;;;;17.54;48.88;101110.00;5090634;28;20048;-68
2023/01/07 09:03:49;;;;;;;3.63;1.73;;;;;;;18.67;46.27;101117.34;5110450;28;20016;-68
2023/01/07 09:06:14;;;;;;;2.93;1.60;;;;;;;18.42;47.41;101113.00;5092556;28;20042;-68
2023/01/07 09:08:40;;;;;;;2.23;1.60;;;;;;;18.07;47.53;101112.53;5093764;28;20126;-68
2023/01/07 09:11:06;;;;;;;2.07;1.40;;;;;;;17.89;47.88;101107.91;5094615;28;20093;-68
2023/01/07 09:13:32;;;;;;;1.97;1.77;;;;;;;18.17;46.54;101106.91;5104027;27;20027;-68
2023/01/07 09:15:58;;;;;;;2.40;1.20;;;;;;;18.61;46.46;101104.34;5110422;27;20112;-68
2023/01/07 09:18:24;;;;;;;2.90;1.33;;;;;;;17.68;47.65;101091.91;5113648;27;20027;-68
2023/01/07 09:20:49;;;;;;;3.67;1.40;;;;;;;18.11;47.32;101085.06;5133171;27;20068;-68
2023/01/07 09:23:15;;;;;;;5.30;2.20;;;;;;;18.28;46.48;101078.25;5094267;27;20070;-67
2023/01/07 09:25:41;;;;;;;3.13;1.43;;;;;;;17.98;47.14;101081.13;5088002;28;20149;-68
2023/01/07 09:28:06;;;;;;;3.57;1.33;;;;;;;17.81;46.98;101074.66;5108981;28;20076;-68
2023/01/07 09:30:32;;;;;;;4.07;1.60;;;;;;;17.43;47.66;101066.34;5106843;28;20042;-68
2023/01/07 09:32:57;;;;;;;1.77;1.50;;;;;;;18.17;46.61;101064.59;5126831;27;20507;-68
2023/01/07 09:35:23;;;;;;;3.57;1.30;;;;;;;17.37;48.16;101069.19;5090368;28;20027;-68
2023/01/07 09:37:48;;;;;;;1.60;1.20;;;;;;;17.48;48.08;101070.59;5119009;27;20055;-68
2023/01/07 09:40:20;;;;;;;4.20;1.50;;;;;;;17.93;46.77;101061.97;5103652;28;20027;-68
2023/01/07 09:43:32;;;;;;;1.67;1.30;;;;;;;17.58;47.56;101061.41;5090333;28;20070;-68
2023/01/07 09:46:01;;;;;;;2.20;1.47;;;;;;;16.81;49.10;101048.16;5076761;28;20080;-68
2023/01/07 09:48:50;;;;;;;2.57;1.30;;;;;;;17.76;46.78;101044.91;5090200;28;20047;-68
2023/01/07 09:51:36;;;;;;;2.20;1.50;;;;;;;18.20;46.11;101038.88;5092424;28;20406;-69
2023/01/07 09:54:04;;;;;;;3.10;1.40;;;;;;;17.91;46.32;101037.31;5118594;27;20095;-68
2023/01/07 09:56:31;;;;;;;2.83;1.70;;;;;;;17.52;46.49;101035.22;5112831;27;20043;-68
2023/01/07 09:58:58;;;;;;;3.20;1.23;;;;;;;17.31;47.69;101037.69;5088064;28;20089;-68
2023/01/07 10:01:48;;;;;;;3.63;1.70;;;;;;;17.79;46.42;101036.84;5082751;28;20131;-68
2023/01/07 10:04:21;;;;;;;3.30;1.40;;;;;;;17.30;47.14;101036.81;5080608;28;20042;-68
2023/01/07 10:06:55;;;;;;;6.97;1.43;;;;;;;18.93;43.10;101022.75;5088692;28;20039;-68
2023/01/07 10:09:33;;;;;;;4.17;1.43;;;;;;;18.36;45.16;101022.41;5085350;28;20369;-68
2023/01/07 10:12:26;;;;;;;1.63;1.00;;;;;;;17.95;44.71;101017.78;5080908;28;20032;-68
2023/01/07 10:15:39;;;;;;;2.10;1.20;;;;;;;18.22;43.88;101005.28;5075863;28;20032;-68
2023/01/07 10:18:32;;;;;;;1.05;1.02;;;;;;;17.86;44.27;101002.22;5029844;28;20095;-68
2023/01/07 10:21:04;;;;;;;;;;;;;;;18.73;42.88;100992.66;5080335;28;20031;-68
2023/01/07 10:23:36;;;;;;;2.20;1.80;;;;;;;18.63;43.41;100984.22;5087271;28;20295;-68
2023/01/07 10:26:02;;;;;;;3.50;1.00;;;;;;;19.22;41.49;100976.50;5092442;28;20114;-68
2023/01/07 10:28:42;;;;;;;2.03;1.17;;;;;;;18.80;42.68;100986.16;5109303;28;20449;-68
2023/01/07 10:31:19;;;;;;;2.77;1.37;;;;;;;18.22;43.19;100977.97;5096587;28;20214;-67
2023/01/07 10:33:46;;;;;;;1.50;0.87;;;;;;;19.02;42.42;100964.09;5088919;28;20377;-68
2023/01/07 10:36:37;;;;;;;1.43;1.20;;;;;;;18.84;41.68;100960.44;5087928;28;20032;-68
2023/01/07 10:39:21;;;;;;;1.47;1.17;;;;;;;18.80;43.19;100959.69;5088401;28;20618;-68
2023/01/07 10:42:18;;;;;;;2.10;1.17;;;;;;;20.02;41.23;100940.19;5096101;28;20024;-68
2023/01/07 10:45:14;;;;;;;3.07;1.20;;;;;;;19.56;41.51;100944.94;5087426;28;20031;-68
2023/01/07 10:48:17;;;;;;;6.10;1.30;;;;;;;19.77;41.42;100930.69;5096375;28;20038;-68
2023/01/07 10:51:07;;;;;;;2.00;1.27;;;;;;;18.55;43.58;100924.59;5095059;28;20040;-68
2023/01/07 10:54:00;;;;;;;4.53;1.13;;;;;;;17.34;45.56;100905.50;5091889;28;20035;-68
2023/01/07 10:56:28;;;;;;;5.50;1.30;;;;;;;18.78;43.37;100911.25;5096578;28;20046;-68
2023/01/07 10:58:54;;;;;;;1.20;1.10;;;;;;;17.54;45.41;100909.16;5096487;28;20115;-68
2023/01/07 11:01:25;;;;;;;1.87;1.00;;;;;;;17.95;44.90;100901.44;5108107;28;20167;-68
2023/01/07 11:03:54;;;;;;;4.63;1.48;;;;;;;18.48;44.42;100889.59;5102163;28;20509;-68
2023/01/07 11:06:45;;;;;;;1.67;1.25;;;;;;;18.87;43.25;100874.69;5086110;28;20487;-68
2023/01/07 11:09:19;;;;;;;3.73;1.80;;;;;;;18.66;43.36;100866.78;5087470;28;20110;-68
2023/01/07 11:11:47;;;;;;;1.33;1.20;;;;;;;18.08;44.66;100852.44;5094514;28;20031;-68
2023/01/07 11:14:22;;;;;;;1.50;1.10;;;;;;;18.01;45.15;100856.25;5090608;28;20034;-66
2023/01/07 11:17:27;;;;;;;2.00;1.20;;;;;;;18.85;43.61;100860.66;5109207;28;20024;-67
2023/01/07 11:19:53;;;;;;;2.53;1.47;;;;;;;18.32;44.39;100852.31;5077832;28;20093;-67
2023/01/07 11:22:24;;;;;;;1.80;1.37;;;;;;;17.78;45.58;100854.50;5089381;28;20023;-68
2023/01/07 11:24:50;;;;;;;2.13;1.10;;;;;;;17.42;45.59;100845.31;5092498;28;20032;-67
2023/01/07 11:27:17;;;;;;;2.77;1.27;;;;;;;18.58;43.60;100831.84;5091671;28;20525;-67
2023/01/07 11:29:55;;;;;;;3.47;1.17;;;;;;;19.06;43.45;100835.03;5097178;28;20376;-67
2023/01/07 11:32:25;;;;;;;3.07;1.53;;;;;;;18.47;44.36;100842.88;5094070;28;20507;-68
2023/01/07 11:35:19;;;;;;;3.27;1.60;;;;;;;18.70;43.19;100838.34;5082981;28;20036;-68